Platitera Tonouranon — SX7180 — position and weather

sailwx.info

Track history (hours):
 
Tides and Currents Weather Stations Pressure Air Temp Water Temp Dewpoint Dewpoint Depression Visibility Wind Speed Wind Dir Waves Ship Positions

Platitera Tonouranon

Last reported at 2016-May-06 06:33 UTC. Time now 2016-May-06 07:20 UTC.
Position N 37°35' E 023°32'.

Length 55 m; draft 3.8 m.

Type: Ship (hazmat cat A). MMSI: 237038200.

Date/timePositionNaut miles runAvg speedWind from/ knotsBaromVisibWave heightAir tempDewpointWater temp
2016-May-06 06:33N 37°35' E 023°32'1212.0
2016-May-06 05:33N 37°46' E 023°35'1111.1
2016-May-06 04:34N 37°56' E 023°41'0 0.1
2016-May-06 03:33N 37°56' E 023°41'0 0.0
2016-May-06 02:34N 37°56' E 023°41'0 0.0
2016-May-06 01:33N 37°56' E 023°41'0 0.0
2016-May-06 00:34N 37°56' E 023°41'0 0.0
2016-May-05 23:34N 37°56' E 023°41'0 0.0
2016-May-05 22:34N 37°56' E 023°41'0 0.0
2016-May-05 21:34N 37°56' E 023°41'0 0.0
2016-May-05 20:34N 37°56' E 023°41'0 0.0
2016-May-05 19:34N 37°56' E 023°41'0 0.0
2016-May-05 18:33N 37°56' E 023°41'0 0.0
2016-May-05 17:33N 37°56' E 023°41'1 1.0
2016-May-05 16:34N 37°56' E 023°40'1111.5
2016-May-05 15:34N 37°48' E 023°29'4 1.9
2016-May-05 13:15N 37°45' E 023°26'811.3
2016-May-05 12:33N 37°37' E 023°25'7 6.9
2016-May-05 11:33N 37°30' E 023°27'5 5.1
2016-May-05 10:32N 37°27' E 023°32'6 6.5
2016-May-05 09:34N 37°21' E 023°28'0 0.0
2016-May-05 08:32N 37°21' E 023°28'1110.9
2016-May-05 07:33N 37°32' E 023°32'1212.0
2016-May-05 06:33N 37°43' E 023°33'1211.7
2016-May-05 05:34N 37°54' E 023°39'3 2.6
2016-May-05 04:34N 37°56' E 023°41'0 0.0
2016-May-05 03:33N 37°56' E 023°41'0 0.0
2016-May-04 19:20N 37°56' E 023°41'0 0.0
2016-May-04 18:34N 37°56' E 023°41'0 0.0
2016-May-04 17:34N 37°56' E 023°41'0 0.0
2016-May-04 16:34N 37°56' E 023°41'10 9.7
2016-May-04 15:34N 37°50' E 023°32'7 2.9
2016-May-04 13:05N 37°45' E 023°26'611.3
2016-May-04 12:33N 37°39' E 023°26'9 8.9
2016-May-04 11:34N 37°30' E 023°27'4 4.4
2016-May-04 10:33N 37°27' E 023°31'7 6.1
2016-May-04 09:26N 37°21' E 023°28'0 0.0
2016-May-04 08:33N 37°21' E 023°28'10 9.4
2016-May-04 07:31N 37°30' E 023°31'1111.8
2016-May-04 06:33N 37°42' E 023°32'1111.3
2016-May-04 05:33N 37°53' E 023°36'5 5.2
2016-May-04 04:33N 37°56' E 023°41'0 0.0
2016-May-04 03:33N 37°56' E 023°41'0 0.0
2016-May-03 18:12N 37°56' E 023°41'0 0.0
2016-May-03 17:33N 37°56' E 023°41'2 2.2
2016-May-03 16:33N 37°55' E 023°39'1211.7
2016-May-03 15:33N 37°48' E 023°27'3 2.9
2016-May-03 14:29N 37°45' E 023°26'0 0.0
2016-May-03 13:20N 37°45' E 023°25'911.1
2016-May-03 12:33N 37°36' E 023°25'6 6.4
2016-May-03 11:33N 37°30' E 023°27'5 4.7
2016-May-03 10:32N 37°27' E 023°32'6 6.2
2016-May-03 09:29N 37°21' E 023°28'0 0.0
2016-May-03 08:33N 37°21' E 023°28'1010.2
2016-May-03 07:32N 37°31' E 023°31'1111.5
2016-May-03 06:33N 37°42' E 023°32'1111.4
2016-May-03 05:33N 37°53' E 023°38'4 4.1
2016-May-03 04:33N 37°56' E 023°41'0 0.0
2016-May-03 03:33N 37°56' E 023°41'0 0.0
2016-May-02 17:27N 37°56' E 023°41'3 3.6
2016-May-02 16:34N 37°54' E 023°39'1010.3
2016-May-02 15:33N 37°47' E 023°29'3 1.5
2016-May-02 13:19N 37°45' E 023°26'811.0
2016-May-02 12:33N 37°36' E 023°26'6 6.4
2016-May-02 11:33N 37°30' E 023°27'5 5.4
2016-May-02 10:33N 37°26' E 023°32'6 6.1
2016-May-02 09:33N 37°21' E 023°28'0 0.0
2016-May-02 08:33N 37°21' E 023°28'9 8.6
2016-May-02 07:33N 37°29' E 023°33'1211.7
2016-May-02 06:33N 37°40' E 023°37'1211.7
2016-May-02 05:34N 37°52' E 023°39'5 4.7
2016-May-02 04:34N 37°56' E 023°41'0 0.0
2016-May-02 03:34N 37°56' E 023°41'0 0.0
2016-May-01 17:33N 37°56' E 023°41'7 6.8
2016-May-01 16:33N 37°52' E 023°34'10 4.5
2016-May-01 14:20N 37°45' E 023°26'0 0.0
2016-May-01 13:33N 37°45' E 023°26'1211.6
2016-May-01 12:32N 37°33' E 023°25'3 3.5
2016-May-01 11:33N 37°30' E 023°27'7 7.3
2016-May-01 10:33N 37°23' E 023°29'2 2.1
2016-May-01 09:33N 37°21' E 023°28'2 1.9
2016-May-01 08:33N 37°23' E 023°29'1511.8
2016-May-01 07:18N 37°35' E 023°39'911.8
2016-May-01 06:33N 37°44' E 023°41'1211.9
2016-May-01 05:33N 37°56' E 023°40'1 0.7
2016-May-01 04:33N 37°56' E 023°41'0 0.0
2016-May-01 03:33N 37°56' E 023°41'0 0.0
2016-Apr-30 17:22N 37°56' E 023°41'2 1.9
2016-Apr-30 16:33N 37°55' E 023°40'1211.6
2016-Apr-30 15:33N 37°48' E 023°28'4 1.6
2016-Apr-30 13:19N 37°45' E 023°26'911.3
2016-Apr-30 12:33N 37°36' E 023°26'6 6.1
2016-Apr-30 11:33N 37°30' E 023°27'6 5.6
2016-Apr-30 10:33N 37°26' E 023°32'6 5.7
2016-Apr-30 09:30N 37°21' E 023°28'0 0.0
2016-Apr-30 08:32N 37°21' E 023°28'1411.0
2016-Apr-30 07:17N 37°33' E 023°37'911.8
2016-Apr-30 06:33N 37°42' E 023°35'1211.9
2016-Apr-30 05:33N 37°53' E 023°39'4 3.6
2016-Apr-30 04:34N 37°56' E 023°41'0 0.0
2016-Apr-30 03:33N 37°56' E 023°41'0 0.0
2016-Apr-29 16:34N 37°56' E 023°41'1111.0
2016-Apr-29 15:34N 37°48' E 023°32'6 2.4
2016-Apr-29 13:08N 37°45' E 023°26'611.2
2016-Apr-29 12:33N 37°38' E 023°25'8 8.4
2016-Apr-29 11:33N 37°30' E 023°27'5 5.1
2016-Apr-29 10:34N 37°27' E 023°32'6 6.3
2016-Apr-29 09:33N 37°21' E 023°28'0 0.0
2016-Apr-29 08:33N 37°21' E 023°28'9 9.3
2016-Apr-29 07:33N 37°30' E 023°32'1211.8
2016-Apr-29 06:33N 37°41' E 023°34'1211.6
2016-Apr-29 05:34N 37°52' E 023°38'4 4.4
2016-Apr-29 04:34N 37°56' E 023°41'0 0.0
2016-Apr-29 03:34N 37°56' E 023°41'0 0.0
2016-Apr-28 17:33N 37°56' E 023°41'2 1.5
2016-Apr-28 16:33N 37°55' E 023°40'1111.4
2016-Apr-28 15:33N 37°48' E 023°29'4 3.4
2016-Apr-28 14:24N 37°45' E 023°26'0 0.0
2016-Apr-28 13:12N 37°45' E 023°26'711.4
2016-Apr-28 12:33N 37°37' E 023°26'7 7.4
2016-Apr-28 11:33N 37°30' E 023°27'6 5.7
2016-Apr-28 10:33N 37°26' E 023°32'6 5.7
2016-Apr-28 09:33N 37°21' E 023°28'0 0.0
2016-Apr-28 08:32N 37°21' E 023°28'1111.1
2016-Apr-28 07:33N 37°31' E 023°33'1211.8
2016-Apr-28 06:33N 37°43' E 023°35'1111.5
2016-Apr-28 05:33N 37°54' E 023°39'3 2.7
2016-Apr-28 04:33N 37°56' E 023°41'0 0.0
2016-Apr-28 03:33N 37°56' E 023°41'0 0.0
2016-Apr-27 20:33N 37°56' E 023°41'0 0.0
2016-Apr-27 19:33N 37°56' E 023°41'0 0.0
2016-Apr-27 18:33N 37°56' E 023°41'0 0.0
2016-Apr-27 17:33N 37°56' E 023°41'1 0.5
2016-Apr-27 16:33N 37°56' E 023°40'1111.4
2016-Apr-27 15:33N 37°48' E 023°30'5 2.0
2016-Apr-27 13:05N 37°45' E 023°26'611.2
2016-Apr-27 12:33N 37°39' E 023°25'9 7.9
2016-Apr-27 11:25N 37°30' E 023°27'6 5.8
2016-Apr-27 10:23N 37°25' E 023°31'5 5.6
2016-Apr-27 09:33N 37°21' E 023°28'0 0.0
2016-Apr-27 08:33N 37°21' E 023°28'1010.5
2016-Apr-27 07:33N 37°31' E 023°32'1211.9
2016-Apr-27 06:33N 37°43' E 023°34'1111.4
2016-Apr-27 05:33N 37°54' E 023°38'3 3.4
2016-Apr-27 04:33N 37°56' E 023°41'0 0.0
2016-Apr-27 03:33N 37°56' E 023°41'0 0.0
2016-Apr-26 20:28N 37°56' E 023°41'0 0.0
2016-Apr-26 19:33N 37°56' E 023°41'0 0.0
2016-Apr-26 18:33N 37°56' E 023°41'0 0.0
2016-Apr-26 17:33N 37°56' E 023°41'5 5.1
2016-Apr-26 16:33N 37°54' E 023°35'1211.7
2016-Apr-26 15:33N 37°46' E 023°25'1 0.6
2016-Apr-26 13:28N 37°45' E 023°26'910.1
2016-Apr-26 12:33N 37°35' E 023°25'6 5.6
2016-Apr-26 11:33N 37°30' E 023°27'8 7.1
2016-Apr-26 10:28N 37°23' E 023°29'2 1.8
2016-Apr-26 09:33N 37°21' E 023°28'6 5.2
2016-Apr-26 08:19N 37°27' E 023°32'912.1
2016-Apr-26 07:33N 37°36' E 023°32'1211.6
2016-Apr-26 06:33N 37°48' E 023°33'  
Track history (hours):
 
Tides and Currents Weather Stations Pressure Air Temp Water Temp Dewpoint Dewpoint Depression Visibility Wind Speed Wind Dir Waves Ship Positions

Platitera Tonouranon

Last reported at 2016-May-06 06:33 UTC. Time now 2016-May-06 07:20 UTC.
Position N 37°35' E 023°32'.

Length 55 m; draft 3.8 m.

Type: Ship (hazmat cat A). MMSI: 237038200.

Date/timePositionNaut miles runAvg speedWind from/ knotsBaromVisibWave heightAir tempDewpointWater temp
2016-May-06 06:33N 37°35' E 023°32'1212.0
2016-May-06 05:33N 37°46' E 023°35'1111.1
2016-May-06 04:34N 37°56' E 023°41'0 0.1
2016-May-06 03:33N 37°56' E 023°41'0 0.0
2016-May-06 02:34N 37°56' E 023°41'0 0.0
2016-May-06 01:33N 37°56' E 023°41'0 0.0
2016-May-06 00:34N 37°56' E 023°41'0 0.0
2016-May-05 23:34N 37°56' E 023°41'0 0.0
2016-May-05 22:34N 37°56' E 023°41'0 0.0
2016-May-05 21:34N 37°56' E 023°41'0 0.0
2016-May-05 20:34N 37°56' E 023°41'0 0.0
2016-May-05 19:34N 37°56' E 023°41'0 0.0
2016-May-05 18:33N 37°56' E 023°41'0 0.0
2016-May-05 17:33N 37°56' E 023°41'1 1.0
2016-May-05 16:34N 37°56' E 023°40'1111.5
2016-May-05 15:34N 37°48' E 023°29'4 1.9
2016-May-05 13:15N 37°45' E 023°26'811.3
2016-May-05 12:33N 37°37' E 023°25'7 6.9
2016-May-05 11:33N 37°30' E 023°27'5 5.1
2016-May-05 10:32N 37°27' E 023°32'6 6.5
2016-May-05 09:34N 37°21' E 023°28'0 0.0
2016-May-05 08:32N 37°21' E 023°28'1110.9
2016-May-05 07:33N 37°32' E 023°32'1212.0
2016-May-05 06:33N 37°43' E 023°33'1211.7
2016-May-05 05:34N 37°54' E 023°39'3 2.6
2016-May-05 04:34N 37°56' E 023°41'0 0.0
2016-May-05 03:33N 37°56' E 023°41'0 0.0
2016-May-04 19:20N 37°56' E 023°41'0 0.0
2016-May-04 18:34N 37°56' E 023°41'0 0.0
2016-May-04 17:34N 37°56' E 023°41'0 0.0
2016-May-04 16:34N 37°56' E 023°41'10 9.7
2016-May-04 15:34N 37°50' E 023°32'7 2.9
2016-May-04 13:05N 37°45' E 023°26'611.3
2016-May-04 12:33N 37°39' E 023°26'9 8.9
2016-May-04 11:34N 37°30' E 023°27'4 4.4
2016-May-04 10:33N 37°27' E 023°31'7 6.1
2016-May-04 09:26N 37°21' E 023°28'0 0.0
2016-May-04 08:33N 37°21' E 023°28'10 9.4
2016-May-04 07:31N 37°30' E 023°31'1111.8
2016-May-04 06:33N 37°42' E 023°32'1111.3
2016-May-04 05:33N 37°53' E 023°36'5 5.2
2016-May-04 04:33N 37°56' E 023°41'0 0.0
2016-May-04 03:33N 37°56' E 023°41'0 0.0
2016-May-03 18:12N 37°56' E 023°41'0 0.0
2016-May-03 17:33N 37°56' E 023°41'2 2.2
2016-May-03 16:33N 37°55' E 023°39'1211.7
2016-May-03 15:33N 37°48' E 023°27'3 2.9
2016-May-03 14:29N 37°45' E 023°26'0 0.0
2016-May-03 13:20N 37°45' E 023°25'911.1
2016-May-03 12:33N 37°36' E 023°25'6 6.4
2016-May-03 11:33N 37°30' E 023°27'5 4.7
2016-May-03 10:32N 37°27' E 023°32'6 6.2
2016-May-03 09:29N 37°21' E 023°28'0 0.0
2016-May-03 08:33N 37°21' E 023°28'1010.2
2016-May-03 07:32N 37°31' E 023°31'1111.5
2016-May-03 06:33N 37°42' E 023°32'1111.4
2016-May-03 05:33N 37°53' E 023°38'4 4.1
2016-May-03 04:33N 37°56' E 023°41'0 0.0
2016-May-03 03:33N 37°56' E 023°41'0 0.0
2016-May-02 17:27N 37°56' E 023°41'3 3.6
2016-May-02 16:34N 37°54' E 023°39'1010.3
2016-May-02 15:33N 37°47' E 023°29'3 1.5
2016-May-02 13:19N 37°45' E 023°26'811.0
2016-May-02 12:33N 37°36' E 023°26'6 6.4
2016-May-02 11:33N 37°30' E 023°27'5 5.4
2016-May-02 10:33N 37°26' E 023°32'6 6.1
2016-May-02 09:33N 37°21' E 023°28'0 0.0
2016-May-02 08:33N 37°21' E 023°28'9 8.6
2016-May-02 07:33N 37°29' E 023°33'1211.7
2016-May-02 06:33N 37°40' E 023°37'1211.7
2016-May-02 05:34N 37°52' E 023°39'5 4.7
2016-May-02 04:34N 37°56' E 023°41'0 0.0
2016-May-02 03:34N 37°56' E 023°41'0 0.0
2016-May-01 17:33N 37°56' E 023°41'7 6.8
2016-May-01 16:33N 37°52' E 023°34'10 4.5
2016-May-01 14:20N 37°45' E 023°26'0 0.0
2016-May-01 13:33N 37°45' E 023°26'1211.6
2016-May-01 12:32N 37°33' E 023°25'3 3.5
2016-May-01 11:33N 37°30' E 023°27'7 7.3
2016-May-01 10:33N 37°23' E 023°29'2 2.1
2016-May-01 09:33N 37°21' E 023°28'2 1.9
2016-May-01 08:33N 37°23' E 023°29'1511.8
2016-May-01 07:18N 37°35' E 023°39'911.8
2016-May-01 06:33N 37°44' E 023°41'1211.9
2016-May-01 05:33N 37°56' E 023°40'1 0.7
2016-May-01 04:33N 37°56' E 023°41'0 0.0
2016-May-01 03:33N 37°56' E 023°41'0 0.0
2016-Apr-30 17:22N 37°56' E 023°41'2 1.9
2016-Apr-30 16:33N 37°55' E 023°40'1211.6
2016-Apr-30 15:33N 37°48' E 023°28'4 1.6
2016-Apr-30 13:19N 37°45' E 023°26'911.3
2016-Apr-30 12:33N 37°36' E 023°26'6 6.1
2016-Apr-30 11:33N 37°30' E 023°27'6 5.6
2016-Apr-30 10:33N 37°26' E 023°32'6 5.7
2016-Apr-30 09:30N 37°21' E 023°28'0 0.0
2016-Apr-30 08:32N 37°21' E 023°28'1411.0
2016-Apr-30 07:17N 37°33' E 023°37'911.8
2016-Apr-30 06:33N 37°42' E 023°35'1211.9
2016-Apr-30 05:33N 37°53' E 023°39'4 3.6
2016-Apr-30 04:34N 37°56' E 023°41'0 0.0
2016-Apr-30 03:33N 37°56' E 023°41'0 0.0
2016-Apr-29 16:34N 37°56' E 023°41'1111.0
2016-Apr-29 15:34N 37°48' E 023°32'6 2.4
2016-Apr-29 13:08N 37°45' E 023°26'611.2
2016-Apr-29 12:33N 37°38' E 023°25'8 8.4
2016-Apr-29 11:33N 37°30' E 023°27'5 5.1
2016-Apr-29 10:34N 37°27' E 023°32'6 6.3
2016-Apr-29 09:33N 37°21' E 023°28'0 0.0
2016-Apr-29 08:33N 37°21' E 023°28'9 9.3
2016-Apr-29 07:33N 37°30' E 023°32'1211.8
2016-Apr-29 06:33N 37°41' E 023°34'1211.6
2016-Apr-29 05:34N 37°52' E 023°38'4 4.4
2016-Apr-29 04:34N 37°56' E 023°41'0 0.0
2016-Apr-29 03:34N 37°56' E 023°41'0 0.0
2016-Apr-28 17:33N 37°56' E 023°41'2 1.5
2016-Apr-28 16:33N 37°55' E 023°40'1111.4
2016-Apr-28 15:33N 37°48' E 023°29'4 3.4
2016-Apr-28 14:24N 37°45' E 023°26'0 0.0
2016-Apr-28 13:12N 37°45' E 023°26'711.4
2016-Apr-28 12:33N 37°37' E 023°26'7 7.4
2016-Apr-28 11:33N 37°30' E 023°27'6 5.7
2016-Apr-28 10:33N 37°26' E 023°32'6 5.7
2016-Apr-28 09:33N 37°21' E 023°28'0 0.0
2016-Apr-28 08:32N 37°21' E 023°28'1111.1
2016-Apr-28 07:33N 37°31' E 023°33'1211.8
2016-Apr-28 06:33N 37°43' E 023°35'1111.5
2016-Apr-28 05:33N 37°54' E 023°39'3 2.7
2016-Apr-28 04:33N 37°56' E 023°41'0 0.0
2016-Apr-28 03:33N 37°56' E 023°41'0 0.0
2016-Apr-27 20:33N 37°56' E 023°41'0 0.0
2016-Apr-27 19:33N 37°56' E 023°41'0 0.0
2016-Apr-27 18:33N 37°56' E 023°41'0 0.0
2016-Apr-27 17:33N 37°56' E 023°41'1 0.5
2016-Apr-27 16:33N 37°56' E 023°40'1111.4
2016-Apr-27 15:33N 37°48' E 023°30'5 2.0
2016-Apr-27 13:05N 37°45' E 023°26'611.2
2016-Apr-27 12:33N 37°39' E 023°25'9 7.9
2016-Apr-27 11:25N 37°30' E 023°27'6 5.8
2016-Apr-27 10:23N 37°25' E 023°31'5 5.6
2016-Apr-27 09:33N 37°21' E 023°28'0 0.0
2016-Apr-27 08:33N 37°21' E 023°28'1010.5
2016-Apr-27 07:33N 37°31' E 023°32'1211.9
2016-Apr-27 06:33N 37°43' E 023°34'1111.4
2016-Apr-27 05:33N 37°54' E 023°38'3 3.4
2016-Apr-27 04:33N 37°56' E 023°41'0 0.0
2016-Apr-27 03:33N 37°56' E 023°41'0 0.0
2016-Apr-26 20:28N 37°56' E 023°41'0 0.0
2016-Apr-26 19:33N 37°56' E 023°41'0 0.0
2016-Apr-26 18:33N 37°56' E 023°41'0 0.0
2016-Apr-26 17:33N 37°56' E 023°41'5 5.1
2016-Apr-26 16:33N 37°54' E 023°35'1211.7
2016-Apr-26 15:33N 37°46' E 023°25'1 0.6
2016-Apr-26 13:28N 37°45' E 023°26'910.1
2016-Apr-26 12:33N 37°35' E 023°25'6 5.6
2016-Apr-26 11:33N 37°30' E 023°27'8 7.1
2016-Apr-26 10:28N 37°23' E 023°29'2 1.8
2016-Apr-26 09:33N 37°21' E 023°28'6 5.2
2016-Apr-26 08:19N 37°27' E 023°32'912.1
2016-Apr-26 07:33N 37°36' E 023°32'1211.6
2016-Apr-26 06:33N 37°48' E 023°33'  

Dump ship's entire track history